Time;durP1;ratioP1;P1;durP2;ratioP2;P2;SDS_P1;SDS_P2;PMS_P1;PMS_P2;Temp;Humidity;BMP_temperature;BMP_pressure;BME280_temperature;BME280_humidity;BME280_pressure;Samples;Min_cycle;Max_cycle;Signal;HPM_P1;HPM_P2
2023/08/27 00:01:02;;;;;;;2.67;1.38;;;;;;;16.13;80.32;101012.50;5012512;28;99468;-26
2023/08/27 00:03:28;;;;;;;2.20;1.17;;;;;;;16.10;80.69;101020.97;5012803;28;96603;-27
2023/08/27 00:05:53;;;;;;;2.40;1.45;;;;;;;16.03;80.37;101015.13;5012886;28;96835;-27
2023/08/27 00:08:18;;;;;;;1.50;0.93;;;;;;;16.07;79.84;101013.88;5012717;28;97412;-27
2023/08/27 00:10:44;;;;;;;2.53;1.30;;;;;;;16.08;80.41;101009.28;5011625;28;97776;-27
2023/08/27 00:13:09;;;;;;;1.55;1.00;;;;;;;16.06;80.65;101017.59;5012227;28;96473;-26
2023/08/27 00:15:35;;;;;;;2.15;1.00;;;;;;;16.05;80.44;101004.94;5011801;28;96822;-26
2023/08/27 00:18:00;;;;;;;2.00;1.23;;;;;;;16.04;80.77;101008.69;5012195;28;98879;-27
2023/08/27 00:20:26;;;;;;;3.67;1.58;;;;;;;16.04;80.97;101007.78;5012219;28;97430;-27
2023/08/27 00:22:51;;;;;;;2.75;1.45;;;;;;;16.04;81.13;101013.25;5012435;28;96602;-27
2023/08/27 00:25:16;;;;;;;2.50;1.20;;;;;;;16.02;81.76;101005.22;5012356;28;96799;-26
2023/08/27 00:27:42;;;;;;;3.80;1.80;;;;;;;16.00;82.30;101007.19;5012174;28;99275;-26
2023/08/27 00:30:08;;;;;;;3.28;1.80;;;;;;;15.90;81.96;100996.16;5012608;28;97359;-27
2023/08/27 00:32:34;;;;;;;3.35;1.80;;;;;;;15.97;82.42;101001.09;5010929;28;96539;-26
2023/08/27 00:35:00;;;;;;;4.28;1.77;;;;;;;15.96;83.37;101002.09;5012273;28;96805;-26
2023/08/27 00:37:25;;;;;;;2.78;1.67;;;;;;;15.90;82.66;100989.81;5010355;28;100831;-28
2023/08/27 00:39:52;;;;;;;4.03;2.00;;;;;;;15.92;83.89;101001.47;5010509;28;99869;-27
2023/08/27 00:42:17;;;;;;;2.95;1.65;;;;;;;15.90;83.26;100985.22;5012466;28;96599;-27
2023/08/27 00:44:43;;;;;;;3.15;1.63;;;;;;;15.91;83.51;100983.34;5012265;28;96786;-27
2023/08/27 00:47:10;;;;;;;2.50;1.50;;;;;;;15.96;83.74;100980.25;5011863;28;99342;-26
2023/08/27 00:49:36;;;;;;;4.03;1.92;;;;;;;15.91;83.47;100969.69;5011908;28;97511;-27
2023/08/27 00:52:01;;;;;;;3.00;1.75;;;;;;;15.95;82.96;100979.38;5011960;28;96556;-26
2023/08/27 00:54:27;;;;;;;3.35;2.03;;;;;;;15.97;83.19;100955.53;5011001;28;96908;-26
2023/08/27 00:56:53;;;;;;;3.22;1.80;;;;;;;15.94;83.17;100947.56;5012201;28;97502;-27
2023/08/27 00:59:19;;;;;;;5.45;1.88;;;;;;;15.98;83.09;100959.13;5012031;28;97308;-26
2023/08/27 01:01:45;;;;;;;5.22;1.98;;;;;;;15.94;83.48;100953.03;5011528;28;96591;-28
2023/08/27 01:04:11;;;;;;;4.15;1.80;;;;;;;15.92;83.67;100949.56;5011585;28;96907;-26
2023/08/27 01:06:37;;;;;;;3.30;1.90;;;;;;;15.94;83.13;100953.03;5010306;28;101235;-26
2023/08/27 01:09:30;;;;;;;3.63;1.88;;;;;;;16.02;83.72;100966.09;5011906;28;97755;-26
2023/08/27 01:12:04;;;;;;;3.10;1.80;;;;;;;15.98;83.79;100957.25;5010429;28;96586;-27
2023/08/27 01:14:33;;;;;;;5.82;1.85;;;;;;;16.04;83.68;100964.97;5010217;28;97322;-27
2023/08/27 01:17:02;;;;;;;3.53;1.85;;;;;;;16.02;84.10;100961.50;5009817;28;101019;-27
2023/08/27 01:19:29;;;;;;;4.60;1.58;;;;;;;16.02;84.26;100963.34;5010612;28;101348;-27
2023/08/27 01:21:54;;;;;;;5.15;1.83;;;;;;;15.96;84.10;100948.31;5010976;28;96529;-27
2023/08/27 01:24:19;;;;;;;4.00;1.50;;;;;;;15.96;84.54;100953.78;5015128;28;96941;-27
2023/08/27 01:26:46;;;;;;;2.92;1.58;;;;;;;16.00;83.99;100957.16;5014697;28;97917;-26
2023/08/27 01:29:25;;;;;;;4.30;1.90;;;;;;;16.00;83.65;100951.69;5015281;28;97366;-27
2023/08/27 01:32:09;;;;;;;1.92;1.23;;;;;;;15.97;83.48;100943.72;5014960;28;96730;-26
2023/08/27 01:34:35;;;;;;;2.97;1.55;;;;;;;15.96;84.21;100940.13;5013795;28;96774;-27
2023/08/27 01:37:03;;;;;;;2.70;1.70;;;;;;;15.91;84.57;100923.25;5013331;28;100920;-27
2023/08/27 01:39:29;;;;;;;3.17;1.77;;;;;;;15.96;83.32;100931.94;5012998;28;101146;-27
2023/08/27 01:41:54;;;;;;;2.92;1.70;;;;;;;15.95;83.90;100924.75;5015079;28;96547;-27
2023/08/27 01:44:19;;;;;;;2.55;1.55;;;;;;;15.98;83.84;100929.94;5015318;28;96975;-27
2023/08/27 01:46:45;;;;;;;2.65;1.58;;;;;;;15.98;84.61;100932.69;5014848;28;97840;-27
2023/08/27 01:49:10;;;;;;;3.90;1.58;;;;;;;15.95;84.79;100924.75;5014733;28;97305;-26
2023/08/27 01:51:35;;;;;;;6.25;1.48;;;;;;;15.93;84.50;100929.47;5014149;28;96475;-27
2023/08/27 01:54:01;;;;;;;3.22;1.60;;;;;;;15.96;83.91;100939.25;5014353;28;96866;-27
2023/08/27 01:56:26;;;;;;;3.85;1.10;;;;;;;15.94;84.52;100928.44;5014579;28;97957;-27
2023/08/27 01:58:52;;;;;;;2.45;1.20;;;;;;;15.99;84.57;100939.84;5014687;28;97772;-27
2023/08/27 02:01:17;;;;;;;3.42;0.90;;;;;;;15.93;84.85;100924.00;5014418;28;97878;-27
2023/08/27 02:03:43;;;;;;;2.15;1.45;;;;;;;15.99;83.91;100928.94;5014473;28;97014;-27
2023/08/27 02:06:08;;;;;;;2.80;1.38;;;;;;;16.04;83.67;100936.75;5014360;28;99174;-26
2023/08/27 02:08:33;;;;;;;3.10;1.23;;;;;;;16.07;83.61;100944.72;5014911;28;97814;-27
2023/08/27 02:10:59;;;;;;;2.15;1.30;;;;;;;16.03;83.89;100935.88;5014493;28;96504;-28
2023/08/27 02:13:24;;;;;;;2.95;1.23;;;;;;;16.11;84.10;100952.53;5014508;28;96783;-27
2023/08/27 02:15:50;;;;;;;3.47;1.23;;;;;;;16.10;84.59;100949.91;5013276;28;98022;-26
2023/08/27 02:18:15;;;;;;;4.20;1.50;;;;;;;16.09;83.92;100935.38;5014252;28;97284;-27
2023/08/27 02:20:43;;;;;;;2.85;1.50;;;;;;;16.10;83.95;100939.84;5014257;28;96581;-26
2023/08/27 02:23:09;;;;;;;3.20;1.40;;;;;;;16.09;84.97;100940.84;5014292;28;96898;-28
2023/08/27 02:25:34;;;;;;;3.78;1.35;;;;;;;16.06;84.19;100926.56;5014101;28;97132;-27
2023/08/27 02:27:59;;;;;;;5.22;1.30;;;;;;;16.14;84.66;100937.75;5014329;28;97597;-26
2023/08/27 02:30:25;;;;;;;2.85;1.45;;;;;;;16.11;85.53;100944.34;5014168;28;96449;-27
2023/08/27 02:32:50;;;;;;;1.75;1.13;;;;;;;16.11;84.53;100944.34;5014701;28;96444;-27
2023/08/27 02:35:15;;;;;;;1.83;1.10;;;;;;;16.12;85.29;100946.06;5013635;28;97319;-27
2023/08/27 02:37:41;;;;;;;1.88;1.13;;;;;;;16.02;85.63;100928.69;5013858;28;98269;-27
2023/08/27 02:40:07;;;;;;;2.33;1.05;;;;;;;16.06;84.86;100932.88;5013554;28;96525;-26
2023/08/27 02:42:32;;;;;;;1.70;1.00;;;;;;;16.08;84.80;100939.09;5012716;28;96876;-27
2023/08/27 02:44:57;;;;;;;2.30;1.35;;;;;;;16.07;84.46;100942.84;5013678;28;98871;-27
2023/08/27 02:47:23;;;;;;;4.32;1.77;;;;;;;16.09;85.54;100937.25;5014204;28;97251;-27
2023/08/27 02:49:49;;;;;;;2.33;1.20;;;;;;;16.09;84.79;100932.66;5014088;28;96534;-26
2023/08/27 02:52:15;;;;;;;5.50;1.42;;;;;;;16.16;84.64;100934.84;5013867;28;96915;-27
2023/08/27 02:54:41;;;;;;;1.15;0.75;;;;;;;16.16;85.47;100937.59;5012157;28;101264;-27
2023/08/27 02:57:06;;;;;;;2.88;1.23;;;;;;;16.13;84.75;100938.72;5014121;28;97284;-28
2023/08/27 02:59:31;;;;;;;2.45;1.33;;;;;;;16.10;85.66;100931.66;5013788;28;96578;-26
2023/08/27 03:01:57;;;;;;;3.92;1.50;;;;;;;16.09;85.18;100935.38;5013928;28;96776;-26
2023/08/27 03:04:22;;;;;;;2.65;1.42;;;;;;;16.09;85.31;100943.59;5013255;28;98176;-26
2023/08/27 03:06:47;;;;;;;3.28;1.08;;;;;;;16.10;86.67;100941.72;5013638;28;97622;-26
2023/08/27 03:09:13;;;;;;;3.00;1.40;;;;;;;16.07;85.88;100936.53;5013934;28;96555;-27
2023/08/27 03:11:38;;;;;;;2.92;1.45;;;;;;;16.06;85.76;100941.09;5013691;28;96850;-27
2023/08/27 03:14:04;;;;;;;2.58;1.35;;;;;;;16.10;85.32;100941.72;5013916;28;97405;-27
2023/08/27 03:16:29;;;;;;;2.65;1.20;;;;;;;16.09;85.75;100932.66;5012900;28;97825;-27
2023/08/27 03:18:54;;;;;;;2.45;1.27;;;;;;;16.09;86.34;100931.78;5012057;28;96802;-27
2023/08/27 03:21:21;;;;;;;1.38;1.08;;;;;;;16.05;85.73;100931.16;5014273;28;96806;-27
2023/08/27 03:23:47;;;;;;;2.38;1.40;;;;;;;16.03;86.35;100932.28;5012884;28;97777;-26
2023/08/27 03:26:12;;;;;;;3.00;1.50;;;;;;;16.08;86.43;100944.56;5011756;28;100700;-27
2023/08/27 03:28:37;;;;;;;2.08;1.35;;;;;;;16.05;86.36;100942.09;5012662;28;96673;-28
2023/08/27 03:31:03;;;;;;;3.80;1.33;;;;;;;15.98;85.70;100931.81;5013542;28;96848;-27
2023/08/27 03:33:31;;;;;;;1.25;0.90;;;;;;;16.01;85.01;100948.81;5011734;28;100954;-27
2023/08/27 03:35:57;;;;;;;1.17;0.68;;;;;;;15.99;83.76;100937.13;5011723;28;99861;-29
2023/08/27 03:38:23;;;;;;;0.38;0.30;;;;;;;15.99;82.69;100930.81;5011558;28;96803;-27
2023/08/27 03:40:50;;;;;;;0.30;0.22;;;;;;;16.00;81.95;100930.69;5012911;28;96877;-27
2023/08/27 03:43:16;;;;;;;0.43;0.30;;;;;;;15.99;81.06;100928.94;5011468;28;100769;-28
2023/08/27 03:45:41;;;;;;;0.65;0.30;;;;;;;16.03;80.90;100935.88;5011999;28;99091;-26
2023/08/27 03:48:06;;;;;;;0.70;0.40;;;;;;;16.05;80.92;100949.44;5013092;28;96552;-27
2023/08/27 03:50:32;;;;;;;0.08;0.08;;;;;;;16.03;80.39;100949.56;5013086;28;96965;-28
2023/08/27 03:52:57;;;;;;;0.45;0.20;;;;;;;16.02;80.12;100930.56;5012435;28;97938;-27
2023/08/27 03:55:23;;;;;;;1.00;0.40;;;;;;;16.05;80.17;100931.16;5012568;28;98861;-26
2023/08/27 03:57:50;;;;;;;0.70;0.20;;;;;;;16.01;80.11;100924.22;5012994;28;96641;-28
2023/08/27 04:00:15;;;;;;;0.38;0.22;;;;;;;16.02;79.86;100923.22;5011517;28;96793;-26
2023/08/27 04:02:41;;;;;;;0.63;0.22;;;;;;;16.04;79.96;100931.28;5012825;28;97922;-27
2023/08/27 04:05:07;;;;;;;0.75;0.32;;;;;;;15.99;79.58;100920.72;5011183;28;100983;-32
2023/08/27 04:07:32;;;;;;;1.48;0.38;;;;;;;15.98;79.93;100919.00;5012677;28;96551;-27
2023/08/27 04:09:58;;;;;;;0.50;0.25;;;;;;;15.88;80.01;100908.00;5012926;28;96849;-27
2023/08/27 04:12:23;;;;;;;1.75;0.20;;;;;;;15.89;79.95;100906.97;5012653;28;97495;-27
2023/08/27 04:14:48;;;;;;;0.15;0.15;;;;;;;15.88;80.15;100918.06;5012024;28;99165;-27
2023/08/27 04:17:14;;;;;;;0.40;0.20;;;;;;;15.83;80.13;100928.50;5012270;28;96448;-27
2023/08/27 04:19:40;;;;;;;0.35;0.15;;;;;;;15.76;80.13;100917.19;5012919;28;96825;-27
2023/08/27 04:22:06;;;;;;;0.20;0.20;;;;;;;15.71;79.92;100908.53;5012346;28;98094;-28
2023/08/27 04:24:31;;;;;;;0.35;0.17;;;;;;;15.75;80.44;100920.03;5012213;28;99231;-26
2023/08/27 04:26:58;;;;;;;0.43;0.20;;;;;;;15.74;80.23;100915.59;5012553;28;96616;-26
2023/08/27 04:29:23;;;;;;;0.22;0.22;;;;;;;15.73;80.25;100916.56;5012494;28;96696;-26
2023/08/27 04:31:49;;;;;;;0.40;0.30;;;;;;;15.71;79.82;100917.56;5012361;28;97376;-27
2023/08/27 04:34:14;;;;;;;0.52;0.20;;;;;;;15.66;79.99;100907.97;5012744;28;97788;-27
2023/08/27 04:36:39;;;;;;;0.38;0.10;;;;;;;15.66;79.89;100914.31;5012414;28;96668;-28
2023/08/27 04:39:07;;;;;;;0.20;0.15;;;;;;;15.60;79.73;100909.34;5012251;28;96774;-27
2023/08/27 04:41:33;;;;;;;0.80;0.20;;;;;;;15.61;79.92;100915.69;5011453;28;99611;-26
2023/08/27 04:43:59;;;;;;;1.27;0.20;;;;;;;15.57;80.11;100912.34;5012180;28;97647;-27
2023/08/27 04:46:24;;;;;;;0.32;0.20;;;;;;;15.57;80.20;100912.34;5010835;28;96541;-27
2023/08/27 04:48:49;;;;;;;0.28;0.10;;;;;;;15.58;80.43;100918.66;5012228;28;96847;-27
2023/08/27 04:51:16;;;;;;;0.20;0.15;;;;;;;15.56;80.03;100924.25;5011942;28;97464;-26
2023/08/27 04:53:41;;;;;;;0.30;0.20;;;;;;;15.58;80.32;100925.00;5011910;28;99197;-27
2023/08/27 04:56:07;;;;;;;0.17;0.17;;;;;;;15.54;80.06;100918.06;5010634;28;96619;-28
2023/08/27 04:58:32;;;;;;;0.25;0.17;;;;;;;15.49;79.88;100909.34;5015378;28;96816;-26
2023/08/27 05:00:57;;;;;;;0.22;0.17;;;;;;;15.43;79.72;100913.47;5015908;28;97128;-27
2023/08/27 05:03:23;;;;;;;4.47;0.28;;;;;;;15.42;79.84;100919.03;5015215;28;98619;-27
2023/08/27 05:05:52;;;;;;;0.55;0.22;;;;;;;15.43;80.03;100915.31;5014903;28;96641;-27
2023/08/27 05:08:17;;;;;;;0.57;0.30;;;;;;;15.43;80.19;100912.59;5015442;28;96774;-27
2023/08/27 05:10:42;;;;;;;1.15;0.47;;;;;;;15.49;80.33;100923.00;5015537;28;97524;-28
2023/08/27 05:13:08;;;;;;;0.45;0.32;;;;;;;15.42;80.55;100914.47;5015382;28;97866;-26
2023/08/27 05:15:33;;;;;;;0.55;0.35;;;;;;;15.42;80.62;100925.38;5015126;28;96757;-27
2023/08/27 05:17:58;;;;;;;3.25;0.45;;;;;;;15.48;80.65;100927.59;5015805;28;96832;-26
2023/08/27 05:20:24;;;;;;;1.33;0.28;;;;;;;15.49;80.55;100926.63;5015221;28;98014;-26
2023/08/27 05:22:49;;;;;;;0.60;0.25;;;;;;;15.47;80.99;100923.16;5014296;28;97278;-27
2023/08/27 05:25:14;;;;;;;2.15;0.63;;;;;;;15.48;80.82;100918.56;5015310;28;96555;-27
2023/08/27 05:27:44;;;;;;;0.55;0.55;;;;;;;15.48;81.07;100924.88;5015192;28;96846;-27
2023/08/27 05:30:16;;;;;;;0.57;0.38;;;;;;;15.53;81.32;100929.97;5014429;28;99322;-27
2023/08/27 05:32:43;;;;;;;0.75;0.40;;;;;;;15.51;81.37;100934.66;5013377;28;101151;-27
2023/08/27 05:35:08;;;;;;;3.00;0.60;;;;;;;15.54;81.23;100925.38;5013735;28;96651;-27
2023/08/27 05:37:34;;;;;;;0.93;0.47;;;;;;;15.58;81.39;100933.19;5014692;28;96782;-27
2023/08/27 05:39:59;;;;;;;1.92;0.45;;;;;;;15.57;81.91;100928.72;5015054;28;98127;-27
2023/08/27 05:42:25;;;;;;;0.50;0.43;;;;;;;15.55;82.68;100922.50;5014955;28;97910;-27
2023/08/27 05:44:50;;;;;;;5.25;0.93;;;;;;;15.55;82.90;100903.41;5014953;28;96621;-27
2023/08/27 05:47:17;;;;;;;2.05;1.10;;;;;;;15.62;83.99;100915.56;5015140;28;96848;-27
2023/08/27 05:49:45;;;;;;;2.60;0.93;;;;;;;15.64;85.05;100913.56;5014834;28;97922;-27
2023/08/27 05:52:10;;;;;;;2.35;0.95;;;;;;;15.63;85.32;100905.50;5014501;28;99428;-27
2023/08/27 05:54:36;;;;;;;1.60;0.65;;;;;;;15.58;86.01;100900.41;5014826;28;96411;-27
2023/08/27 05:57:02;;;;;;;2.92;1.20;;;;;;;15.56;87.28;100904.25;5014816;28;96791;-29
2023/08/27 05:59:28;;;;;;;2.28;1.20;;;;;;;15.57;87.26;100900.56;5013083;28;100906;-26
2023/08/27 06:01:53;;;;;;;2.28;1.40;;;;;;;15.62;86.63;100898.31;5014640;28;97228;-27
2023/08/27 06:04:18;;;;;;;4.00;1.30;;;;;;;15.68;86.32;100906.88;5014851;28;96657;-26
2023/08/27 06:06:44;;;;;;;1.33;1.15;;;;;;;15.69;86.87;100897.69;5014473;28;96867;-26
2023/08/27 06:09:09;;;;;;;2.03;1.38;;;;;;;15.77;86.89;100902.53;5013206;28;98962;-27
2023/08/27 06:11:34;;;;;;;2.45;1.33;;;;;;;15.82;87.83;100905.75;5014867;28;97399;-27
2023/08/27 06:14:00;;;;;;;2.25;1.30;;;;;;;15.88;86.29;100904.38;5014820;28;96621;-26
2023/08/27 06:16:25;;;;;;;2.03;1.45;;;;;;;15.91;86.41;100909.59;5012465;28;96860;-27
2023/08/27 06:18:50;;;;;;;2.20;1.42;;;;;;;15.89;88.47;100906.97;5013660;28;99332;-28
2023/08/27 06:21:17;;;;;;;3.40;1.45;;;;;;;15.93;89.49;100913.94;5014068;28;99475;-26
2023/08/27 06:23:43;;;;;;;2.75;1.50;;;;;;;15.94;89.34;100906.59;5014266;28;96643;-27
2023/08/27 06:26:09;;;;;;;4.50;1.63;;;;;;;16.06;88.95;100927.44;5012888;28;96824;-26
2023/08/27 06:28:34;;;;;;;2.33;1.80;;;;;;;16.14;88.61;100926.81;5013877;28;99630;-27
2023/08/27 06:31:00;;;;;;;3.53;1.88;;;;;;;16.13;87.98;100917.72;5013895;28;98840;-27
2023/08/27 06:33:25;;;;;;;2.70;1.80;;;;;;;16.16;89.00;100924.81;5012695;28;96676;-26
2023/08/27 06:35:51;;;;;;;3.60;1.98;;;;;;;16.17;88.10;100926.53;5013208;28;97000;-28
2023/08/27 06:38:17;;;;;;;3.20;1.83;;;;;;;16.21;87.55;100928.03;5013900;28;97962;-27
2023/08/27 06:40:42;;;;;;;2.58;1.73;;;;;;;16.18;88.25;100921.94;5013882;28;99618;-26
2023/08/27 06:43:08;;;;;;;7.55;2.03;;;;;;;16.17;87.62;100923.81;5013537;28;96524;-26
2023/08/27 06:45:35;;;;;;;3.25;2.10;;;;;;;16.22;88.52;100931.63;4996201;28;97244;-27
2023/08/27 06:48:01;;;;;;;2.72;1.60;;;;;;;16.21;88.03;100921.66;5012322;28;101221;-28
2023/08/27 06:50:26;;;;;;;2.90;1.77;;;;;;;16.27;87.88;100923.91;5013999;28;97394;-27
2023/08/27 06:52:51;;;;;;;4.55;1.90;;;;;;;16.36;86.43;100914.94;5013981;28;96483;-27
2023/08/27 06:55:17;;;;;;;2.97;1.58;;;;;;;16.43;86.61;100913.41;5014016;28;96777;-26
2023/08/27 06:57:42;;;;;;;4.22;1.92;;;;;;;16.45;86.32;100905.94;5013836;28;97980;-27
2023/08/27 07:00:08;;;;;;;3.50;1.85;;;;;;;16.54;86.10;100917.94;5014126;28;97828;-28
2023/08/27 07:02:34;;;;;;;4.82;2.45;;;;;;;16.62;85.80;100912.69;5012267;28;97210;-26
2023/08/27 07:04:59;;;;;;;4.13;2.47;;;;;;;16.90;85.35;100915.78;5013753;28;96711;-26
2023/08/27 07:07:25;;;;;;;8.55;2.40;;;;;;;17.05;84.19;100913.59;5013208;28;97907;-28
2023/08/27 07:09:51;;;;;;;4.82;2.45;;;;;;;17.36;83.43;100912.59;5011883;28;100779;-26
2023/08/27 07:12:17;;;;;;;3.22;2.33;;;;;;;17.68;82.93;100907.97;5013548;28;96594;-27
2023/08/27 07:14:43;;;;;;;3.17;2.22;;;;;;;17.75;81.37;100906.41;5013628;28;96739;-27
2023/08/27 07:17:08;;;;;;;3.60;2.35;;;;;;;17.67;81.23;100906.25;5012474;28;97826;-27
2023/08/27 07:19:33;;;;;;;4.15;2.03;;;;;;;17.66;80.28;100905.34;5013008;28;99029;-27
2023/08/27 07:21:59;;;;;;;1.95;1.42;;;;;;;17.66;79.78;100905.34;5013635;28;96500;-27
2023/08/27 07:24:24;;;;;;;2.17;1.58;;;;;;;17.56;79.77;100907.22;5013930;28;96773;-26
2023/08/27 07:26:49;;;;;;;2.72;1.88;;;;;;;17.59;79.60;100917.88;5013400;28;97913;-27
2023/08/27 07:29:15;;;;;;;2.88;1.25;;;;;;;17.49;79.90;100909.63;5013287;28;97865;-27
2023/08/27 07:31:40;;;;;;;1.70;1.27;;;;;;;17.47;80.08;100908.03;5012611;28;96693;-27
2023/08/27 07:34:05;;;;;;;2.67;1.40;;;;;;;17.68;80.16;100897.88;5013357;28;96840;-28
2023/08/27 07:36:31;;;;;;;4.53;1.38;;;;;;;17.68;79.86;100888.78;5013208;28;97330;-27
2023/08/27 07:38:57;;;;;;;1.73;1.17;;;;;;;17.61;80.13;100885.75;5013132;28;97245;-26
2023/08/27 07:41:23;;;;;;;2.08;0.80;;;;;;;17.48;79.75;100896.09;5011672;28;96648;-27
2023/08/27 07:43:48;;;;;;;0.77;0.65;;;;;;;17.32;79.09;100888.38;5013266;28;96552;-26
2023/08/27 07:46:13;;;;;;;1.35;0.82;;;;;;;17.23;79.43;100900.13;5012761;28;97981;-26
2023/08/27 07:48:39;;;;;;;0.45;0.43;;;;;;;17.19;79.45;100899.56;5013431;28;97887;-27
2023/08/27 07:51:04;;;;;;;0.35;0.35;;;;;;;17.08;78.81;100883.22;5012912;28;96752;-26
2023/08/27 07:53:30;;;;;;;0.75;0.50;;;;;;;17.05;79.01;100895.31;5012938;28;96817;-27
2023/08/27 07:55:55;;;;;;;3.75;0.52;;;;;;;16.89;78.92;100883.97;5010790;28;100948;-27
2023/08/27 07:58:21;;;;;;;2.35;0.50;;;;;;;16.81;78.86;100892.84;5012811;28;97787;-27
2023/08/27 08:00:47;;;;;;;1.42;0.88;;;;;;;16.72;79.27;100889.00;5012791;28;96622;-27
2023/08/27 08:03:12;;;;;;;1.67;0.40;;;;;;;16.66;79.44;100902.34;5013021;28;96798;-28
2023/08/27 08:05:37;;;;;;;1.30;0.60;;;;;;;16.65;80.12;100915.16;5013095;28;97354;-26
2023/08/27 08:08:03;;;;;;;0.30;0.30;;;;;;;16.53;79.46;100916.22;5012582;28;99665;-26
2023/08/27 08:10:29;;;;;;;1.45;0.40;;;;;;;16.38;79.84;100904.72;5012727;28;96726;-27
2023/08/27 08:12:54;;;;;;;0.85;0.38;;;;;;;16.28;80.15;100906.50;5013118;28;96830;-26
2023/08/27 08:15:20;;;;;;;0.20;0.20;;;;;;;16.12;80.19;100896.00;5011846;28;98111;-27
2023/08/27 08:17:45;;;;;;;0.95;0.38;;;;;;;16.01;80.53;100894.16;5011134;28;100983;-27
2023/08/27 08:20:11;;;;;;;0.40;0.30;;;;;;;16.02;80.83;100903.25;5012064;28;96484;-27
2023/08/27 08:22:37;;;;;;;1.20;0.32;;;;;;;15.96;80.09;100890.94;5008480;28;97006;-27
2023/08/27 08:25:03;;;;;;;0.25;0.22;;;;;;;15.92;79.06;100889.47;4999744;28;98242;-28
2023/08/27 08:27:28;;;;;;;2.70;0.20;;;;;;;15.93;79.43;100896.69;4999511;28;102120;-27
2023/08/27 08:29:53;;;;;;;0.30;0.20;;;;;;;15.99;79.04;100901.59;4992839;28;96929;-27
2023/08/27 08:32:19;;;;;;;0.10;0.10;;;;;;;15.96;79.39;100907.34;5004277;28;96913;-26
2023/08/27 08:34:44;;;;;;;0.30;0.30;;;;;;;15.96;79.26;100907.34;5009845;28;97995;-27
2023/08/27 08:37:10;;;;;;;0.17;0.17;;;;;;;16.00;79.71;100891.56;5011151;28;97890;-26
2023/08/27 08:39:36;;;;;;;0.80;0.32;;;;;;;16.05;79.66;100922.97;5012194;28;96533;-27
2023/08/27 08:42:26;;;;;;;0.95;0.45;;;;;;;16.05;79.65;100912.03;5012447;28;96887;-27
2023/08/27 08:45:06;;;;;;;0.90;0.15;;;;;;;16.02;79.15;100911.44;5010190;28;100932;-27
2023/08/27 08:47:35;;;;;;;0.35;0.30;;;;;;;16.46;78.73;100910.41;5009999;28;100714;-28
2023/08/27 08:50:05;;;;;;;0.40;0.20;;;;;;;16.74;78.23;100908.91;5008110;28;97026;-29
2023/08/27 08:52:37;;;;;;;0.28;0.15;;;;;;;17.29;76.09;100914.16;5005462;28;97055;-27
2023/08/27 08:55:07;;;;;;;1.02;0.45;;;;;;;17.74;75.03;100910.16;4991288;28;98559;-27
2023/08/27 08:57:38;;;;;;;0.85;0.20;;;;;;;18.13;73.16;100918.50;4989164;28;98935;-27
2023/08/27 09:00:04;;;;;;;0.88;0.30;;;;;;;18.43;72.34;100914.78;4992264;28;96605;-26
2023/08/27 09:02:29;;;;;;;0.25;0.25;;;;;;;18.59;72.08;100904.13;4990727;28;97054;-26
2023/08/27 09:04:56;;;;;;;0.15;0.13;;;;;;;18.31;71.43;100891.25;4991001;28;97328;-26
2023/08/27 09:07:23;;;;;;;1.75;0.50;;;;;;;18.25;73.50;100893.53;4990308;28;100837;-26
2023/08/27 09:09:51;;;;;;;1.35;0.30;;;;;;;18.44;72.86;100892.69;4990171;28;96693;-27
2023/08/27 09:12:20;;;;;;;0.25;0.20;;;;;;;18.34;71.66;100878.13;4990541;28;97414;-28
2023/08/27 09:14:46;;;;;;;0.65;0.52;;;;;;;18.26;74.04;100877.97;4990406;28;100712;-27
2023/08/27 09:17:16;;;;;;;0.77;0.20;;;;;;;18.09;73.58;100879.56;4991406;28;97911;-26
2023/08/27 09:19:42;;;;;;;0.30;0.10;;;;;;;18.31;73.25;100880.28;4990536;28;97231;-29
2023/08/27 09:22:07;;;;;;;0.35;0.20;;;;;;;18.64;71.76;100884.47;4990268;28;97117;-27
2023/08/27 09:24:33;;;;;;;0.32;0.30;;;;;;;18.81;72.00;100882.88;4989192;28;99480;-28
2023/08/27 09:26:59;;;;;;;0.88;0.47;;;;;;;18.62;72.35;100890.09;4988111;28;100866;-27
2023/08/27 09:29:26;;;;;;;0.70;0.40;;;;;;;18.36;71.85;100891.69;4989513;28;97063;-27
2023/08/27 09:31:56;;;;;;;0.43;0.28;;;;;;;18.09;72.39;100908.81;4987721;28;96954;-28
2023/08/27 09:34:21;;;;;;;1.23;0.47;;;;;;;17.90;74.01;100895.94;4987085;28;101226;-27
2023/08/27 09:36:47;;;;;;;0.30;0.30;;;;;;;17.66;71.76;100894.41;4989796;28;99932;-28
2023/08/27 09:39:12;;;;;;;0.38;0.20;;;;;;;17.53;73.46;100904.75;4991395;28;97274;-27
2023/08/27 09:41:43;;;;;;;0.57;0.40;;;;;;;17.35;74.81;100905.41;4990224;28;96872;-27
2023/08/27 09:44:10;;;;;;;0.70;0.55;;;;;;;17.24;74.92;100910.97;4992378;28;100921;-27
2023/08/27 09:46:42;;;;;;;0.40;0.40;;;;;;;17.14;75.36;100908.19;4993491;28;99764;-27
2023/08/27 09:49:08;;;;;;;1.42;0.70;;;;;;;17.03;76.00;100918.34;4993413;28;96711;-26
2023/08/27 09:51:35;;;;;;;0.50;0.47;;;;;;;16.85;76.50;100921.69;4995553;28;96767;-26
2023/08/27 09:54:12;;;;;;;0.13;0.13;;;;;;;16.64;76.39;100904.38;4993637;28;101067;-26
2023/08/27 09:56:37;;;;;;;0.45;0.30;;;;;;;16.68;76.53;100919.50;4993278;28;100968;-26
2023/08/27 09:59:05;;;;;;;0.45;0.45;;;;;;;16.56;77.25;100905.91;4994211;28;96622;-26
2023/08/27 10:01:37;;;;;;;0.85;0.50;;;;;;;16.43;76.87;100913.41;4992960;28;97032;-27
2023/08/27 10:04:07;;;;;;;3.53;0.70;;;;;;;16.34;77.46;100889.56;4993318;28;100995;-26
2023/08/27 10:06:37;;;;;;;0.52;0.32;;;;;;;16.35;78.02;100902.22;4992988;28;101347;-27
2023/08/27 10:09:03;;;;;;;0.63;0.38;;;;;;;16.29;78.22;100898.16;4993274;28;96522;-27
2023/08/27 10:11:29;;;;;;;0.20;0.20;;;;;;;16.33;78.36;100888.72;4993156;28;96662;-27
2023/08/27 10:13:57;;;;;;;2.20;0.20;;;;;;;16.31;78.34;100892.59;4992723;28;99185;-27
2023/08/27 10:16:23;;;;;;;0.22;0.20;;;;;;;16.29;78.51;100887.22;4993675;28;99240;-27
2023/08/27 10:18:48;;;;;;;0.43;0.30;;;;;;;16.29;77.72;100894.56;4994622;28;96513;-26
2023/08/27 10:21:15;;;;;;;0.50;0.38;;;;;;;16.23;78.24;100892.34;4994206;28;96846;-27
2023/08/27 10:23:42;;;;;;;0.40;0.20;;;;;;;16.27;77.91;100902.03;4991946;28;101098;-26
2023/08/27 10:26:08;;;;;;;0.20;0.17;;;;;;;16.28;78.23;100892.81;4991015;28;100841;-27
2023/08/27 10:28:35;;;;;;;4.13;0.45;;;;;;;16.39;78.75;100903.72;4990615;28;97560;-26
2023/08/27 10:31:05;;;;;;;0.80;0.32;;;;;;;16.50;78.87;100903.69;4994117;28;96832;-26
2023/08/27 10:33:31;;;;;;;1.45;0.30;;;;;;;16.81;78.32;100906.53;4992680;28;101048;-26
2023/08/27 10:36:00;;;;;;;1.05;0.20;;;;;;;16.87;78.91;100905.97;4992511;28;100946;-27
2023/08/27 10:38:28;;;;;;;0.47;0.20;;;;;;;17.04;78.30;100904.53;4992329;28;97140;-27
2023/08/27 10:40:53;;;;;;;0.22;0.20;;;;;;;17.30;77.60;100925.97;4992947;28;96890;-27
2023/08/27 10:43:20;;;;;;;0.20;0.15;;;;;;;17.45;76.91;100931.94;4994184;28;97994;-26
2023/08/27 10:45:48;;;;;;;0.55;0.47;;;;;;;17.77;76.70;100940.88;4992588;28;100949;-26
2023/08/27 10:48:24;;;;;;;1.15;0.30;;;;;;;17.88;76.89;100942.69;4991729;28;96596;-28
2023/08/27 10:50:58;;;;;;;0.30;0.30;;;;;;;17.93;76.90;100934.06;4990155;28;97240;-30
2023/08/27 10:53:24;;;;;;;1.02;0.40;;;;;;;17.76;76.50;100939.16;4991432;28;97447;-32
2023/08/27 10:55:51;;;;;;;0.20;0.10;;;;;;;17.68;76.87;100949.94;4989165;28;101524;-32
2023/08/27 10:58:24;;;;;;;1.00;0.32;;;;;;;17.54;77.05;100951.19;4989953;28;96770;-30
2023/08/27 11:01:13;;;;;;;0.28;0.17;;;;;;;17.44;77.50;100952.13;4989863;28;97179;-27
2023/08/27 11:03:58;;;;;;;1.17;0.38;;;;;;;17.20;76.11;100959.63;4991280;28;99368;-26
2023/08/27 11:06:46;;;;;;;0.93;0.30;;;;;;;17.26;77.81;100962.84;4993826;28;99288;-28
2023/08/27 11:09:14;;;;;;;0.88;0.28;;;;;;;17.25;78.12;100953.75;4993782;28;96496;-26
2023/08/27 11:11:40;;;;;;;0.73;0.40;;;;;;;17.43;77.38;100958.63;4992245;28;96802;-26
2023/08/27 11:14:10;;;;;;;3.13;0.40;;;;;;;17.79;76.70;100954.44;4991215;28;101072;-27
2023/08/27 11:16:47;;;;;;;0.30;0.15;;;;;;;17.87;76.43;100956.53;5003277;28;99206;-26
2023/08/27 11:19:14;;;;;;;0.63;0.25;;;;;;;17.82;75.46;100954.19;5012244;28;96699;-26
2023/08/27 11:21:49;;;;;;;1.05;0.30;;;;;;;18.13;75.23;100957.75;5011994;28;96784;-27